Time,TemperatureF,DewpointF,PressureIn,WindDirection,WindDirectionDegrees,WindSpeedMPH,WindSpeedGustMPH,Humidity,HourlyPrecipIn,Conditions,Clouds,dailyrainin,SolarRadiationWatts/m^2,SoftwareType,DateUTC
2013-10-13 00:00:00,64.8,63.9,30.10,NNW,336,1.0,5.0,97,0.00,RA,RA,0.00,0.0,WeatherDisplay:10.37,2013-10-13 05:00:00,
2013-10-13 00:10:00,64.6,63.7,30.10,NW,317,0.0,3.0,97,0.00,CLR,CLR,0.00,0.0,WeatherDisplay:10.37,2013-10-13 05:10:00,
2013-10-13 00:20:00,63.7,62.5,30.11,WSW,257,0.0,2.0,96,0.00,CLR,CLR,0.00,0.0,WeatherDisplay:10.37,2013-10-13 05:20:00,
2013-10-13 00:30:00,62.5,61.3,30.11,SSW,206,0.0,2.0,96,0.00,CLR,CLR,0.00,0.0,WeatherDisplay:10.37,2013-10-13 05:30:00,
2013-10-13 00:40:00,62.6,61.8,30.11,SW,215,1.0,2.0,97,0.00,CLR,CLR,0.00,0.0,WeatherDisplay:10.37,2013-10-13 05:40:00,
2013-10-13 00:50:00,63.3,62.4,30.11,NNE,22,0.0,2.0,97,0.00,CLR,CLR,0.00,0.0,WeatherDisplay:10.37,2013-10-13 05:50:00,
2013-10-13 01:00:00,63.5,62.6,30.11,NNE,31,1.0,3.0,97,0.00,OVC,OVC,0.00,0.0,WeatherDisplay:10.37,2013-10-13 06:00:00,
2013-10-13 01:10:00,63.5,62.6,30.11,NE,44,2.0,4.0,97,0.00,OVC,OVC,0.00,0.0,WeatherDisplay:10.37,2013-10-13 06:10:00,
2013-10-13 01:20:00,63.6,62.7,30.11,NNE,33,1.0,3.0,97,0.00,OVC,OVC,0.00,0.0,WeatherDisplay:10.37,2013-10-13 06:20:00,
2013-10-13 01:30:00,63.5,62.6,30.12,NNE,22,1.0,4.0,97,0.00,OVC,OVC,0.00,0.0,WeatherDisplay:10.37,2013-10-13 06:30:00,
2013-10-13 01:40:00,63.4,62.5,30.12,North,11,1.0,4.0,97,0.00,CLR,CLR,0.00,0.0,WeatherDisplay:10.37,2013-10-13 06:40:00,
2013-10-13 01:50:00,63.3,62.4,30.13,NNE,22,1.0,5.0,97,0.00,CLR,CLR,0.00,0.0,WeatherDisplay:10.37,2013-10-13 06:50:00,
2013-10-13 02:00:00,63.3,62.4,30.13,North,11,3.0,6.0,97,0.00,BKN,BKN,0.00,0.0,WeatherDisplay:10.37,2013-10-13 07:00:00,
2013-10-13 02:10:00,63.1,62.2,30.13,North,2,1.0,6.0,97,0.00,BKN,BKN,0.00,0.0,WeatherDisplay:10.37,2013-10-13 07:10:00,
2013-10-13 02:20:00,63.1,62.2,30.13,North,4,1.0,7.0,97,0.00,BKN,BKN,0.00,0.0,WeatherDisplay:10.37,2013-10-13 07:20:00,
2013-10-13 02:30:00,63.3,62.4,30.13,NNW,327,1.0,3.0,97,0.00,BKN,BKN,0.00,0.0,WeatherDisplay:10.37,2013-10-13 07:30:00,
2013-10-13 02:40:00,63.5,62.6,30.13,NNW,337,2.0,6.0,97,0.00,BKN,BKN,0.00,0.0,WeatherDisplay:10.37,2013-10-13 07:40:00,
2013-10-13 02:50:00,63.7,63.1,30.13,NNW,332,3.0,6.0,98,0.00,BKN,BKN,0.00,0.0,WeatherDisplay:10.37,2013-10-13 07:50:00,
2013-10-13 03:00:00,63.8,63.2,30.14,NNW,327,3.0,6.0,98,0.00,OVC,OVC,0.00,0.0,WeatherDisplay:10.37,2013-10-13 08:00:00,
2013-10-13 03:10:00,63.8,62.9,30.14,NW,324,1.0,5.0,97,0.00,OVC,OVC,0.00,0.0,WeatherDisplay:10.37,2013-10-13 08:10:00,
2013-10-13 03:20:00,63.6,62.7,30.13,NW,322,2.0,5.0,97,0.00,OVC,OVC,0.00,0.0,WeatherDisplay:10.37,2013-10-13 08:20:00,
2013-10-13 03:30:00,63.5,62.6,30.14,NNW,334,2.0,5.0,97,0.00,OVC,OVC,0.00,0.0,WeatherDisplay:10.37,2013-10-13 08:30:00,
2013-10-13 03:40:00,63.4,62.5,30.14,NNW,337,2.0,4.0,97,0.00,OVC,OVC,0.00,0.0,WeatherDisplay:10.37,2013-10-13 08:40:00,
2013-10-13 03:50:00,63.4,62.8,30.14,North,353,1.0,5.0,98,0.00,OVC,OVC,0.00,0.0,WeatherDisplay:10.37,2013-10-13 08:50:00,
2013-10-13 04:00:00,63.4,62.8,30.14,NNW,345,3.0,5.0,98,0.00,OVC,OVC,0.00,0.0,WeatherDisplay:10.37,2013-10-13 09:00:00,
2013-10-13 04:10:00,63.4,62.8,30.15,North,350,3.0,5.0,98,0.00,OVC,OVC,0.00,0.0,WeatherDisplay:10.37,2013-10-13 09:10:00,
2013-10-13 04:20:00,63.4,62.8,30.15,North,353,3.0,5.0,98,0.00,OVC,OVC,0.00,0.0,WeatherDisplay:10.37,2013-10-13 09:20:00,
2013-10-13 04:30:00,63.4,62.8,30.15,North,352,5.0,7.0,98,0.00,OVC,OVC,0.00,0.0,WeatherDisplay:10.37,2013-10-13 09:30:00,
2013-10-13 04:40:00,63.4,62.8,30.15,North,360,3.0,6.0,98,0.00,OVC,OVC,0.00,0.0,WeatherDisplay:10.37,2013-10-13 09:40:00,
2013-10-13 04:50:00,63.3,62.8,30.16,North,9,3.0,8.0,98,0.00,OVC,OVC,0.00,0.0,WeatherDisplay:10.37,2013-10-13 09:50:00,
2013-10-13 05:00:00,63.3,62.4,30.16,NNE,21,2.0,8.0,97,0.00,OVC,OVC,0.00,0.0,WeatherDisplay:10.37,2013-10-13 10:00:00,
2013-10-13 05:10:00,63.3,62.1,30.16,North,1,3.0,7.0,96,0.00,OVC,OVC,0.00,0.0,WeatherDisplay:10.37,2013-10-13 10:10:00,
2013-10-13 05:20:00,63.4,61.6,30.17,NNE,18,3.0,7.0,94,0.00,OVC,OVC,0.00,0.0,WeatherDisplay:10.37,2013-10-13 10:20:00,
2013-10-13 05:30:00,63.5,61.1,30.17,North,7,6.0,9.0,92,0.00,OVC,OVC,0.00,0.0,WeatherDisplay:10.37,2013-10-13 10:30:00,
2013-10-13 05:40:00,63.5,60.8,30.17,North,8,5.0,8.0,91,0.00,OVC,OVC,0.00,0.0,WeatherDisplay:10.37,2013-10-13 10:40:00,
2013-10-13 05:50:00,63.4,60.4,30.18,NNE,13,3.0,8.0,90,0.00,OVC,OVC,0.00,0.0,WeatherDisplay:10.37,2013-10-13 10:50:00,
2013-10-13 06:00:00,63.2,59.9,30.18,North,9,5.0,9.0,89,0.00,OVC,OVC,0.00,0.0,WeatherDisplay:10.37,2013-10-13 11:00:00,
2013-10-13 06:10:00,63.1,59.8,30.18,North,6,5.0,8.0,89,0.00,OVC,OVC,0.00,0.0,WeatherDisplay:10.37,2013-10-13 11:10:00,
2013-10-13 06:20:00,62.9,59.6,30.19,North,350,3.0,10.0,89,0.00,OVC,OVC,0.00,0.0,WeatherDisplay:10.37,2013-10-13 11:20:00,
2013-10-13 06:30:00,62.6,59.0,30.19,NNE,17,5.0,7.0,88,0.00,OVC,OVC,0.00,0.0,WeatherDisplay:10.37,2013-10-13 11:30:00,
2013-10-13 06:40:00,62.1,58.2,30.19,North,1,3.0,9.0,87,0.00,OVC,OVC,0.00,0.0,WeatherDisplay:10.37,2013-10-13 11:40:00,
2013-10-13 06:50:00,61.6,57.7,30.19,NNE,15,2.0,9.0,87,0.00,OVC,OVC,0.00,0.0,WeatherDisplay:10.37,2013-10-13 11:50:00,
2013-10-13 07:00:00,61.2,57.0,30.19,NNE,12,5.0,9.0,86,0.00,BKN,BKN,0.00,0.0,WeatherDisplay:10.37,2013-10-13 12:00:00,
2013-10-13 07:10:00,60.8,56.6,30.20,North,6,5.0,9.0,86,0.00,BKN,BKN,0.00,0.0,WeatherDisplay:10.37,2013-10-13 12:10:00,
2013-10-13 07:20:00,60.4,56.2,30.20,NNE,12,2.0,7.0,86,0.00,FEW,FEW,0.00,0.0,WeatherDisplay:10.37,2013-10-13 12:20:00,
2013-10-13 07:30:00,60.3,56.1,30.21,North,7,3.0,7.0,86,0.00,FEW,FEW,0.00,0.0,WeatherDisplay:10.37,2013-10-13 12:30:00,
2013-10-13 07:40:00,60.3,55.8,30.21,North,10,3.0,8.0,85,0.00,CLR,CLR,0.00,0.0,WeatherDisplay:10.37,2013-10-13 12:40:00,
2013-10-13 07:50:00,60.3,55.8,30.22,NNE,14,5.0,7.0,85,0.00,CLR,CLR,0.00,0.0,WeatherDisplay:10.37,2013-10-13 12:50:00,
2013-10-13 08:00:00,60.6,55.7,30.22,NNE,16,3.0,6.0,84,0.00,CLR,CLR,0.00,0.0,WeatherDisplay:10.37,2013-10-13 13:00:00,
2013-10-13 08:10:00,60.9,55.4,30.22,North,11,3.0,8.0,82,0.00,CLR,CLR,0.00,0.0,WeatherDisplay:10.37,2013-10-13 13:10:00,
2013-10-13 08:20:00,61.3,55.4,30.23,North,11,3.0,9.0,81,0.00,CLR,CLR,0.00,0.0,WeatherDisplay:10.37,2013-10-13 13:20:00,
2013-10-13 08:30:00,61.8,55.2,30.23,NNE,31,5.0,8.0,79,0.00,CLR,CLR,0.00,0.0,WeatherDisplay:10.37,2013-10-13 13:30:00,
2013-10-13 08:40:00,62.3,55.4,30.24,NNE,24,3.0,9.0,78,0.00,CLR,CLR,0.00,0.0,WeatherDisplay:10.37,2013-10-13 13:40:00,
2013-10-13 08:50:00,62.7,55.1,30.24,NE,36,3.0,12.0,76,0.00,CLR,CLR,0.00,0.0,WeatherDisplay:10.37,2013-10-13 13:50:00,
2013-10-13 09:00:00,63.4,55.3,30.24,NNE,20,3.0,8.0,75,0.00,CLR,CLR,0.00,0.0,WeatherDisplay:10.37,2013-10-13 14:00:00,
2013-10-13 09:10:00,63.8,55.0,30.24,NE,35,6.0,10.0,73,0.00,CLR,CLR,0.00,0.0,WeatherDisplay:10.37,2013-10-13 14:10:00,
2013-10-13 09:20:00,64.4,55.5,30.25,NNE,33,3.0,12.0,73,0.00,CLR,CLR,0.00,0.0,WeatherDisplay:10.37,2013-10-13 14:20:00,
2013-10-13 09:30:00,65.1,55.8,30.25,NNE,28,5.0,10.0,72,0.00,CLR,CLR,0.00,0.0,WeatherDisplay:10.37,2013-10-13 14:30:00,
2013-10-13 09:40:00,65.2,55.6,30.25,NE,36,6.0,12.0,71,0.00,CLR,CLR,0.00,0.0,WeatherDisplay:10.37,2013-10-13 14:40:00,
2013-10-13 09:50:00,65.9,55.9,30.25,NE,41,6.0,9.0,70,0.00,CLR,CLR,0.00,0.0,WeatherDisplay:10.37,2013-10-13 14:50:00,
2013-10-13 10:00:00,66.3,55.8,30.25,NNE,21,5.0,12.0,69,0.00,CLR,CLR,0.00,0.0,WeatherDisplay:10.37,2013-10-13 15:00:00,
2013-10-13 10:10:00,66.7,56.2,30.25,NNE,33,3.0,12.0,69,0.00,CLR,CLR,0.00,0.0,WeatherDisplay:10.37,2013-10-13 15:10:00,
2013-10-13 10:20:00,67.8,57.3,30.25,NNE,33,5.0,10.0,69,0.00,CLR,CLR,0.00,0.0,WeatherDisplay:10.37,2013-10-13 15:20:00,
2013-10-13 10:30:00,67.9,56.9,30.25,NE,35,6.0,12.0,68,0.00,CLR,CLR,0.00,0.0,WeatherDisplay:10.37,2013-10-13 15:30:00,
2013-10-13 10:40:00,68.5,57.6,30.25,NNE,22,5.0,10.0,68,0.00,CLR,CLR,0.00,0.0,WeatherDisplay:10.37,2013-10-13 15:40:00,
2013-10-13 10:50:00,69.4,58.4,30.25,NE,36,5.0,10.0,68,0.00,CLR,CLR,0.00,0.0,WeatherDisplay:10.37,2013-10-13 15:50:00,
2013-10-13 11:00:00,69.9,58.9,30.25,NE,40,5.0,10.0,68,0.00,CLR,CLR,0.00,0.0,WeatherDisplay:10.37,2013-10-13 16:00:00,
2013-10-13 11:10:00,70.6,58.6,30.25,NNE,19,5.0,10.0,66,0.00,CLR,CLR,0.00,0.0,WeatherDisplay:10.37,2013-10-13 16:10:00,
2013-10-13 11:20:00,71.3,59.4,30.25,North,5,3.0,9.0,66,0.00,CLR,CLR,0.00,0.0,WeatherDisplay:10.37,2013-10-13 16:20:00,
2013-10-13 11:30:00,71.8,59.0,30.25,NNE,27,6.0,12.0,64,0.00,CLR,CLR,0.00,0.0,WeatherDisplay:10.37,2013-10-13 16:30:00,
2013-10-13 11:40:00,72.0,59.6,30.24,NNE,14,7.0,10.0,65,0.00,CLR,CLR,0.00,0.0,WeatherDisplay:10.37,2013-10-13 16:40:00,
2013-10-13 11:50:00,72.6,59.7,30.24,NE,44,5.0,12.0,64,0.00,CLR,CLR,0.00,0.0,WeatherDisplay:10.37,2013-10-13 16:50:00,
2013-10-13 12:00:00,73.3,59.9,30.24,NNE,31,5.0,13.0,63,0.00,CLR,CLR,0.00,0.0,WeatherDisplay:10.37,2013-10-13 17:00:00,
2013-10-13 12:10:00,73.4,60.1,30.24,NE,36,7.0,12.0,63,0.00,CLR,CLR,0.00,0.0,WeatherDisplay:10.37,2013-10-13 17:10:00,
2013-10-13 12:20:00,73.8,60.0,30.24,NE,47,6.0,12.0,62,0.00,CLR,CLR,0.00,0.0,WeatherDisplay:10.37,2013-10-13 17:20:00,
2013-10-13 12:30:00,74.2,60.8,30.23,NE,45,7.0,13.0,63,0.00,CLR,CLR,0.00,0.0,WeatherDisplay:10.37,2013-10-13 17:30:00,
2013-10-13 12:40:00,74.4,60.6,30.23,NE,34,6.0,14.0,62,0.00,CLR,CLR,0.00,0.0,WeatherDisplay:10.37,2013-10-13 17:40:00,
2013-10-13 12:50:00,75.0,60.6,30.23,NNE,33,6.0,15.0,61,0.00,CLR,CLR,0.00,0.0,WeatherDisplay:10.37,2013-10-13 17:50:00,
2013-10-13 13:00:00,75.2,59.9,30.22,NNE,16,9.0,14.0,59,0.00,CLR,CLR,0.00,0.0,WeatherDisplay:10.37,2013-10-13 18:00:00,
2013-10-13 13:10:00,75.3,60.0,30.22,NNE,32,7.0,13.0,59,0.00,CLR,CLR,0.00,0.0,WeatherDisplay:10.37,2013-10-13 18:10:00,
2013-10-13 13:20:00,75.9,60.6,30.21,NE,48,8.0,13.0,59,0.00,CLR,CLR,0.00,0.0,WeatherDisplay:10.37,2013-10-13 18:20:00,
2013-10-13 13:30:00,76.0,60.2,30.21,North,5,8.0,13.0,58,0.00,CLR,CLR,0.00,0.0,WeatherDisplay:10.37,2013-10-13 18:30:00,
2013-10-13 13:40:00,76.0,59.7,30.21,NNE,19,6.0,13.0,57,0.00,CLR,CLR,0.00,0.0,WeatherDisplay:10.37,2013-10-13 18:40:00,
2013-10-13 13:50:00,76.1,59.8,30.20,NNE,24,6.0,12.0,57,0.00,CLR,CLR,0.00,0.0,WeatherDisplay:10.37,2013-10-13 18:50:00,
2013-10-13 14:00:00,76.0,59.2,30.20,NNE,19,6.0,13.0,56,0.00,CLR,CLR,0.00,0.0,WeatherDisplay:10.37,2013-10-13 19:00:00,
2013-10-13 14:10:00,76.6,59.7,30.20,NNE,12,3.0,12.0,56,0.00,CLR,CLR,0.00,0.0,WeatherDisplay:10.37,2013-10-13 19:10:00,
2013-10-13 14:20:00,76.8,59.4,30.20,NNE,31,8.0,12.0,55,0.00,CLR,CLR,0.00,0.0,WeatherDisplay:10.37,2013-10-13 19:20:00,
2013-10-13 14:30:00,76.8,59.4,30.19,NNE,28,3.0,10.0,55,0.00,CLR,CLR,0.00,0.0,WeatherDisplay:10.37,2013-10-13 19:30:00,
2013-10-13 14:40:00,76.9,59.0,30.19,NNE,23,10.0,16.0,54,0.00,CLR,CLR,0.00,0.0,WeatherDisplay:10.37,2013-10-13 19:40:00,
2013-10-13 14:50:00,77.0,59.6,30.19,NE,46,6.0,12.0,55,0.00,CLR,CLR,0.00,0.0,WeatherDisplay:10.37,2013-10-13 19:50:00,
2013-10-13 15:00:00,77.2,59.3,30.19,NE,38,5.0,12.0,54,0.00,CLR,CLR,0.00,0.0,WeatherDisplay:10.37,2013-10-13 20:00:00,
2013-10-13 15:10:00,77.2,59.3,30.19,NE,43,3.0,15.0,54,0.00,CLR,CLR,0.00,0.0,WeatherDisplay:10.37,2013-10-13 20:10:00,
2013-10-13 15:20:00,77.5,59.5,30.19,NNE,18,5.0,9.0,54,0.00,CLR,CLR,0.00,0.0,WeatherDisplay:10.37,2013-10-13 20:20:00,
2013-10-13 15:30:00,77.5,59.1,30.19,North,6,5.0,13.0,53,0.00,CLR,CLR,0.00,0.0,WeatherDisplay:10.37,2013-10-13 20:30:00,
2013-10-13 15:40:00,77.3,58.8,30.18,North,1,8.0,14.0,53,0.00,CLR,CLR,0.00,0.0,WeatherDisplay:10.37,2013-10-13 20:40:00,
2013-10-13 15:50:00,77.2,58.2,30.18,NNE,24,9.0,17.0,52,0.00,CLR,CLR,0.00,0.0,WeatherDisplay:10.37,2013-10-13 20:50:00,
2013-10-13 16:00:00,77.4,58.4,30.18,NE,34,5.0,13.0,52,0.00,CLR,CLR,0.00,0.0,WeatherDisplay:10.37,2013-10-13 21:00:00,
2013-10-13 16:10:00,77.2,57.6,30.18,NNE,30,9.0,13.0,51,0.00,CLR,CLR,0.00,0.0,WeatherDisplay:10.37,2013-10-13 21:10:00,
2013-10-13 16:20:00,77.2,57.1,30.18,NE,34,7.0,12.0,50,0.00,CLR,CLR,0.00,0.0,WeatherDisplay:10.37,2013-10-13 21:20:00,
2013-10-13 16:30:00,77.1,56.5,30.18,NE,42,7.0,14.0,49,0.00,CLR,CLR,0.00,0.0,WeatherDisplay:10.37,2013-10-13 21:30:00,
2013-10-13 16:40:00,77.0,56.3,30.18,NNE,26,5.0,14.0,49,0.00,CLR,CLR,0.00,0.0,WeatherDisplay:10.37,2013-10-13 21:40:00,
2013-10-13 16:50:00,77.0,56.4,30.18,NNE,22,6.0,10.0,49,0.00,CLR,CLR,0.00,0.0,WeatherDisplay:10.37,2013-10-13 21:50:00,
2013-10-13 17:00:00,76.7,56.1,30.19,NE,40,5.0,12.0,49,0.00,CLR,CLR,0.00,0.0,WeatherDisplay:10.37,2013-10-13 22:00:00,
2013-10-13 17:10:00,76.5,54.8,30.19,NNE,18,6.0,12.0,47,0.00,CLR,CLR,0.00,0.0,WeatherDisplay:10.37,2013-10-13 22:10:00,
2013-10-13 17:20:00,76.1,53.8,30.19,NNE,22,6.0,12.0,46,0.00,CLR,CLR,0.00,0.0,WeatherDisplay:10.37,2013-10-13 22:20:00,
2013-10-13 17:30:00,75.7,54.0,30.19,NNE,31,3.0,10.0,47,0.00,CLR,CLR,0.00,0.0,WeatherDisplay:10.37,2013-10-13 22:30:00,
2013-10-13 17:40:00,75.2,54.2,30.20,NNE,19,3.0,9.0,48,0.00,CLR,CLR,0.00,0.0,WeatherDisplay:10.37,2013-10-13 22:40:00,
2013-10-13 17:50:00,74.6,54.2,30.19,NNE,33,6.0,12.0,49,0.00,CLR,CLR,0.00,0.0,WeatherDisplay:10.37,2013-10-13 22:50:00,
2013-10-13 18:00:00,74.0,53.7,30.19,NE,38,6.0,9.0,49,0.00,CLR,CLR,0.00,0.0,WeatherDisplay:10.37,2013-10-13 23:00:00,
2013-10-13 18:10:00,73.3,53.5,30.20,NNE,23,3.0,8.0,50,0.00,CLR,CLR,0.00,0.0,WeatherDisplay:10.37,2013-10-13 23:10:00,
2013-10-13 18:20:00,72.3,53.7,30.20,NNE,31,3.0,8.0,52,0.00,CLR,CLR,0.00,0.0,WeatherDisplay:10.37,2013-10-13 23:20:00,
2013-10-13 18:30:00,71.4,53.9,30.20,NE,38,3.0,8.0,54,0.00,CLR,CLR,0.00,0.0,WeatherDisplay:10.37,2013-10-13 23:30:00,
2013-10-13 18:40:00,70.6,53.6,30.20,NNE,25,3.0,6.0,55,0.00,CLR,CLR,0.00,0.0,WeatherDisplay:10.37,2013-10-13 23:40:00,
2013-10-13 18:50:00,69.9,53.9,30.20,NE,35,2.0,6.0,57,0.00,CLR,CLR,0.00,0.0,WeatherDisplay:10.37,2013-10-13 23:50:00,
2013-10-13 19:00:00,69.2,53.8,30.20,NE,37,2.0,5.0,58,0.00,CLR,CLR,0.00,0.0,WeatherDisplay:10.37,2013-10-14 00:00:00,
2013-10-13 19:10:00,68.6,53.7,30.21,NNE,13,2.0,4.0,59,0.00,CLR,CLR,0.00,0.0,WeatherDisplay:10.37,2013-10-14 00:10:00,
2013-10-13 19:20:00,68.3,53.4,30.21,North,7,2.0,4.0,59,0.00,CLR,CLR,0.00,0.0,WeatherDisplay:10.37,2013-10-14 00:20:00,
2013-10-13 19:30:00,68.0,53.1,30.21,North,349,1.0,6.0,59,0.00,CLR,CLR,0.00,0.0,WeatherDisplay:10.37,2013-10-14 00:30:00,
2013-10-13 19:40:00,67.7,52.4,30.21,NNE,25,2.0,6.0,58,0.00,CLR,CLR,0.00,0.0,WeatherDisplay:10.37,2013-10-14 00:40:00,
2013-10-13 19:50:00,67.3,52.1,30.21,NE,36,2.0,7.0,58,0.00,CLR,CLR,0.00,0.0,WeatherDisplay:10.37,2013-10-14 00:50:00,
2013-10-13 20:00:00,66.9,51.7,30.21,NNE,20,3.0,7.0,58,0.00,CLR,CLR,0.00,0.0,WeatherDisplay:10.37,2013-10-14 01:00:00,
2013-10-13 20:10:00,66.4,51.2,30.22,NNE,31,5.0,8.0,58,0.00,CLR,CLR,0.00,0.0,WeatherDisplay:10.37,2013-10-14 01:10:00,
2013-10-13 20:20:00,65.7,51.5,30.22,NNE,33,3.0,5.0,60,0.00,CLR,CLR,0.00,0.0,WeatherDisplay:10.37,2013-10-14 01:20:00,
2013-10-13 20:30:00,65.3,51.0,30.23,NNE,19,2.0,5.0,60,0.00,CLR,CLR,0.00,0.0,WeatherDisplay:10.37,2013-10-14 01:30:00,
2013-10-13 20:40:00,64.8,50.6,30.23,NNE,20,1.0,4.0,60,0.00,CLR,CLR,0.00,0.0,WeatherDisplay:10.37,2013-10-14 01:40:00,
2013-10-13 20:50:00,64.3,50.6,30.23,NNE,14,2.0,3.0,61,0.00,CLR,CLR,0.00,0.0,WeatherDisplay:10.37,2013-10-14 01:50:00,
2013-10-13 21:00:00,63.8,50.5,30.23,NNE,16,1.0,3.0,62,0.00,CLR,CLR,0.00,0.0,WeatherDisplay:10.37,2013-10-14 02:00:00,
2013-10-13 21:10:00,63.2,50.4,30.23,NNE,12,1.0,3.0,63,0.00,CLR,CLR,0.00,0.0,WeatherDisplay:10.37,2013-10-14 02:10:00,
2013-10-13 21:20:00,62.7,50.4,30.23,North,353,1.0,3.0,64,0.00,CLR,CLR,0.00,0.0,WeatherDisplay:10.37,2013-10-14 02:20:00,
2013-10-13 21:30:00,62.3,50.0,30.22,NNE,23,2.0,3.0,64,0.00,CLR,CLR,0.00,0.0,WeatherDisplay:10.37,2013-10-14 02:30:00,
2013-10-13 21:40:00,62.0,50.1,30.22,NE,39,2.0,4.0,65,0.00,CLR,CLR,0.00,0.0,WeatherDisplay:10.37,2013-10-14 02:40:00,
2013-10-13 21:50:00,61.8,49.9,30.22,NNE,23,1.0,3.0,65,0.00,CLR,CLR,0.00,0.0,WeatherDisplay:10.37,2013-10-14 02:50:00,
2013-10-13 22:00:00,61.5,50.0,30.22,NNE,22,2.0,4.0,66,0.00,CLR,CLR,0.00,0.0,WeatherDisplay:10.37,2013-10-14 03:00:00,
2013-10-13 22:10:00,61.4,49.5,30.22,NNE,28,3.0,5.0,65,0.00,CLR,CLR,0.00,0.0,WeatherDisplay:10.37,2013-10-14 03:10:00,
2013-10-13 22:20:00,61.6,49.7,30.22,NE,42,2.0,6.0,65,0.00,CLR,CLR,0.00,0.0,WeatherDisplay:10.37,2013-10-14 03:20:00,
2013-10-13 22:30:00,61.5,49.2,30.22,NNE,29,2.0,5.0,64,0.00,CLR,CLR,0.00,0.0,WeatherDisplay:10.37,2013-10-14 03:30:00,
2013-10-13 22:40:00,61.2,49.4,30.22,NNE,25,1.0,3.0,65,0.00,CLR,CLR,0.00,0.0,WeatherDisplay:10.37,2013-10-14 03:40:00,
2013-10-13 22:50:00,61.0,49.1,30.22,NE,40,3.0,6.0,65,0.00,CLR,CLR,0.00,0.0,WeatherDisplay:10.37,2013-10-14 03:50:00,
2013-10-13 23:00:00,60.9,49.1,30.22,NNE,31,3.0,6.0,65,0.00,CLR,CLR,0.00,0.0,WeatherDisplay:10.37,2013-10-14 04:00:00,
2013-10-13 23:10:00,60.9,49.1,30.22,NNE,33,1.0,5.0,65,0.00,CLR,CLR,0.00,0.0,WeatherDisplay:10.37,2013-10-14 04:10:00,
2013-10-13 23:20:00,60.8,48.5,30.22,NE,37,1.0,5.0,64,0.00,CLR,CLR,0.00,0.0,WeatherDisplay:10.37,2013-10-14 04:20:00,
2013-10-13 23:30:00,60.4,48.6,30.22,NE,51,0.0,3.0,65,0.00,CLR,CLR,0.00,0.0,WeatherDisplay:10.37,2013-10-14 04:30:00,
2013-10-13 23:40:00,60.1,48.3,30.22,NNE,20,2.0,3.0,65,0.00,CLR,CLR,0.00,0.0,WeatherDisplay:10.37,2013-10-14 04:40:00,
2013-10-13 23:50:00,59.8,48.0,30.22,NE,47,0.0,2.0,65,0.00,CLR,CLR,0.00,0.0,WeatherDisplay:10.37,2013-10-14 04:50:00,